createdAt,value
2023-01-21T00:00:22.623Z,25.58
2023-01-21T00:02:52.234Z,25.71
2023-01-21T00:05:21.795Z,25.68
2023-01-21T00:08:50.547Z,25.68
2023-01-21T00:12:19.175Z,25.79
2023-01-21T00:15:48.079Z,25.80
2023-01-21T00:19:16.821Z,25.81
2023-01-21T00:22:45.750Z,25.70
2023-01-21T00:25:54.724Z,25.94
2023-01-21T00:29:23.421Z,25.91
2023-01-21T00:32:52.124Z,25.89
2023-01-21T00:36:20.859Z,25.84
2023-01-21T00:39:52.363Z,25.84
2023-01-21T00:43:21.012Z,25.91
2023-01-21T00:46:49.636Z,26.00
2023-01-21T00:50:18.626Z,25.99
2023-01-21T00:53:47.354Z,25.96
2023-01-21T00:57:16.061Z,25.94
2023-01-21T01:00:45.130Z,25.94
2023-01-21T01:04:13.790Z,25.94
2023-01-21T01:07:42.405Z,25.97
2023-01-21T01:11:11.197Z,26.01
2023-01-21T01:14:39.811Z,25.99
2023-01-21T01:18:08.533Z,25.97
2023-01-21T01:21:37.208Z,26.00
2023-01-21T01:25:06.057Z,25.91
2023-01-21T01:28:34.725Z,26.04
2023-01-21T01:32:03.395Z,26.04
2023-01-21T01:35:31.987Z,26.01
2023-01-21T01:39:00.704Z,26.02
2023-01-21T01:42:29.350Z,26.07
2023-01-21T01:45:02.990Z,26.08
2023-01-21T01:47:39.431Z,26.16
2023-01-21T01:51:08.159Z,26.22
2023-01-21T01:54:36.864Z,26.26
2023-01-21T01:58:05.746Z,26.07
2023-01-21T02:01:36.268Z,26.20
2023-01-21T02:05:05.109Z,26.29
2023-01-21T02:08:43.245Z,26.29
2023-01-21T02:11:46.017Z,26.30
2023-01-21T02:15:14.664Z,26.28
2023-01-21T02:18:55.429Z,26.17
2023-01-21T02:22:12.293Z,26.35
2023-01-21T02:25:07.733Z,26.27
2023-01-21T02:28:34.752Z,26.37
2023-01-21T02:31:58.692Z,26.43
2023-01-21T02:35:36.478Z,26.47
2023-01-21T02:39:14.286Z,26.52
2023-01-21T02:42:09.706Z,26.47
2023-01-21T02:45:30.622Z,26.51
2023-01-21T02:49:11.304Z,26.61
2023-01-21T02:51:40.971Z,26.66
2023-01-21T02:54:41.911Z,26.56
2023-01-21T02:57:19.026Z,26.56
2023-01-21T02:59:53.899Z,26.63
2023-01-21T03:02:47.521Z,26.34
2023-01-21T03:05:42.827Z,26.18
2023-01-21T03:08:32.600Z,26.17
2023-01-21T03:11:20.459Z,26.17
2023-01-21T03:14:31.180Z,26.13
2023-01-21T03:17:11.770Z,26.08
2023-01-21T03:20:05.944Z,26.03
2023-01-21T03:22:38.193Z,25.98
2023-01-21T03:25:11.127Z,26.01
2023-01-21T03:27:45.007Z,26.04
2023-01-21T03:30:25.041Z,26.14
2023-01-21T03:32:57.780Z,25.99
2023-01-21T03:35:37.729Z,26.01
2023-01-21T03:38:26.814Z,26.30
2023-01-21T03:41:09.253Z,26.37
2023-01-21T03:43:38.951Z,26.41
2023-01-21T03:46:23.503Z,26.50
2023-01-21T03:49:01.588Z,26.53
2023-01-21T03:51:43.734Z,26.61
2023-01-21T03:54:13.489Z,26.65
2023-01-21T03:56:43.271Z,26.72
2023-01-21T03:59:13.093Z,26.76
2023-01-21T04:01:43.297Z,26.86
2023-01-21T04:04:13.225Z,26.87
2023-01-21T04:06:42.941Z,26.93
2023-01-21T04:09:13.211Z,26.97
2023-01-21T04:11:42.810Z,27.04
2023-01-21T04:14:12.396Z,27.08
2023-01-21T04:16:42.099Z,27.13
2023-01-21T04:19:11.978Z,27.13
2023-01-21T04:21:41.623Z,27.15
2023-01-21T04:24:11.385Z,27.16
2023-01-21T04:26:40.995Z,27.24
2023-01-21T04:29:10.635Z,27.31
2023-01-21T04:31:40.821Z,27.32
2023-01-21T04:34:10.415Z,27.39
2023-01-21T04:36:39.981Z,27.47
2023-01-21T04:39:09.832Z,27.25
2023-01-21T04:41:39.489Z,27.46
2023-01-21T04:44:09.212Z,27.53
2023-01-21T04:46:38.924Z,27.55
2023-01-21T04:49:08.550Z,27.57
2023-01-21T04:51:38.299Z,27.57
2023-01-21T04:54:08.048Z,27.36
2023-01-21T04:56:37.587Z,27.39
2023-01-21T04:59:09.882Z,27.68
2023-01-21T05:01:39.507Z,27.69
2023-01-21T05:04:09.126Z,27.70
2023-01-21T05:06:38.750Z,27.35
2023-01-21T05:09:08.422Z,27.83
2023-01-21T05:11:38.039Z,27.86
2023-01-21T05:14:07.736Z,27.76
2023-01-21T05:16:37.318Z,27.63
2023-01-21T05:19:07.141Z,28.02
2023-01-21T05:21:36.854Z,28.06
2023-01-21T05:24:06.528Z,28.13
2023-01-21T05:26:36.180Z,28.23
2023-01-21T05:29:06.650Z,28.27
2023-01-21T05:31:36.540Z,28.33
2023-01-21T05:34:06.399Z,28.38
2023-01-21T05:36:36.850Z,28.42
2023-01-21T05:39:06.978Z,28.48
2023-01-21T05:41:36.961Z,28.04
2023-01-21T05:44:06.546Z,28.48
2023-01-21T05:46:36.151Z,28.53
2023-01-21T05:49:06.050Z,28.53
2023-01-21T05:51:35.731Z,28.55
2023-01-21T05:54:06.152Z,28.59
2023-01-21T05:56:35.792Z,28.67
2023-01-21T05:59:05.522Z,28.70
2023-01-21T06:01:35.340Z,28.69
2023-01-21T06:04:04.936Z,28.76
2023-01-21T06:06:34.546Z,28.82
2023-01-21T06:09:04.256Z,28.36
2023-01-21T06:11:33.940Z,28.93
2023-01-21T06:14:03.488Z,28.81
2023-01-21T06:16:33.123Z,29.02
2023-01-21T06:19:02.695Z,29.07
2023-01-21T06:21:32.378Z,29.14
2023-01-21T06:24:03.454Z,29.17
2023-01-21T06:26:33.143Z,29.24
2023-01-21T06:29:03.156Z,29.30
2023-01-21T06:31:32.835Z,29.34
2023-01-21T06:34:02.522Z,29.39
2023-01-21T06:36:32.111Z,29.47
2023-01-21T06:39:01.711Z,29.48
2023-01-21T06:41:31.547Z,29.59
2023-01-21T06:44:01.112Z,29.70
2023-01-21T06:46:30.664Z,29.78
2023-01-21T06:49:00.398Z,29.87
2023-01-21T06:51:30.128Z,29.91
2023-01-21T06:53:59.885Z,29.94
2023-01-21T06:56:29.518Z,29.97
2023-01-21T06:58:59.106Z,30.04
2023-01-21T07:01:32.389Z,30.07
2023-01-21T07:04:03.187Z,30.00
2023-01-21T07:06:32.849Z,30.12
2023-01-21T07:09:02.546Z,30.18
2023-01-21T07:11:32.934Z,30.18
2023-01-21T07:14:02.526Z,30.30
2023-01-21T07:16:32.093Z,30.36
2023-01-21T07:19:01.764Z,30.41
2023-01-21T07:21:31.457Z,30.45
2023-01-21T07:24:02.135Z,30.45
2023-01-21T07:26:31.646Z,30.50
2023-01-21T07:29:01.965Z,30.53
2023-01-21T07:31:31.774Z,30.56
2023-01-21T07:34:01.593Z,30.59
2023-01-21T07:36:31.354Z,30.68
2023-01-21T07:39:01.033Z,30.70
2023-01-21T07:41:30.640Z,30.72
2023-01-21T07:44:00.639Z,30.75
2023-01-21T07:46:30.372Z,30.76
2023-01-21T07:49:00.004Z,30.50
2023-01-21T07:51:29.627Z,30.39
2023-01-21T07:53:59.917Z,30.80
2023-01-21T07:56:29.569Z,30.83
2023-01-21T07:58:59.239Z,30.80
2023-01-21T08:02:28.934Z,30.63
2023-01-21T08:04:58.584Z,30.68
2023-01-21T08:08:27.363Z,30.66
2023-01-21T08:11:56.013Z,30.66
2023-01-21T08:15:24.723Z,30.56
2023-01-21T08:18:53.409Z,30.54
2023-01-21T08:22:22.146Z,30.49
2023-01-21T08:25:50.882Z,30.38
2023-01-21T08:29:19.507Z,30.31
2023-01-21T08:32:48.148Z,30.06
2023-01-21T08:36:16.925Z,30.24
2023-01-21T08:39:26.007Z,30.14
2023-01-21T08:42:54.642Z,29.97
2023-01-21T08:46:23.368Z,30.04
2023-01-21T08:49:52.642Z,30.00
2023-01-21T08:53:21.644Z,29.93
2023-01-21T08:56:50.309Z,29.84
2023-01-21T09:00:19.197Z,29.70
2023-01-21T09:03:47.899Z,29.62
2023-01-21T09:07:16.600Z,29.41
2023-01-21T09:10:43.794Z,29.49
2023-01-21T09:14:12.461Z,29.41
2023-01-21T09:17:41.188Z,29.39
2023-01-21T09:21:09.960Z,29.33
2023-01-21T09:24:38.743Z,29.26
2023-01-21T09:28:10.521Z,29.24
2023-01-21T09:31:45.017Z,29.21
2023-01-21T09:35:13.715Z,29.18
2023-01-21T09:38:42.411Z,29.13
2023-01-21T09:41:52.735Z,29.08
2023-01-21T09:51:40.844Z,28.81
2023-01-21T09:54:35.344Z,28.94
2023-01-21T09:57:29.128Z,28.91
2023-01-21T09:59:58.090Z,28.91
2023-01-21T10:02:55.457Z,28.92
2023-01-21T10:05:43.408Z,28.82
2023-01-21T10:08:42.206Z,28.78
2023-01-21T10:11:29.873Z,28.70
2023-01-21T10:14:29.652Z,28.61
2023-01-21T10:17:17.205Z,28.52
2023-01-21T10:20:15.516Z,28.47
2023-01-21T10:22:54.282Z,28.38
2023-01-21T10:25:32.894Z,28.34
2023-01-21T10:28:08.406Z,28.33
2023-01-21T10:30:42.158Z,28.28
2023-01-21T10:33:34.193Z,28.26
2023-01-21T10:36:18.335Z,28.19
2023-01-21T10:39:09.324Z,28.14
2023-01-21T10:41:53.879Z,28.08
2023-01-21T10:44:31.065Z,28.03
2023-01-21T10:47:18.627Z,27.97
2023-01-21T10:50:06.683Z,27.92
2023-01-21T10:52:53.296Z,27.89
2023-01-21T10:55:59.591Z,27.82
2023-01-21T10:58:43.319Z,27.77
2023-01-21T11:01:30.515Z,27.69
2023-01-21T11:04:06.116Z,27.69
2023-01-21T11:06:37.407Z,27.63
2023-01-21T11:09:11.181Z,27.58
2023-01-21T11:11:43.090Z,27.57
2023-01-21T11:14:12.929Z,27.56
2023-01-21T11:16:45.882Z,27.53
2023-01-21T11:19:18.918Z,27.50
2023-01-21T11:22:06.939Z,27.49
2023-01-21T11:25:20.278Z,27.48
2023-01-21T11:27:49.790Z,27.41
2023-01-21T11:30:50.637Z,27.37
2023-01-21T11:33:25.411Z,27.34
2023-01-21T11:35:57.159Z,27.33
2023-01-21T11:38:36.897Z,27.31
2023-01-21T11:41:19.968Z,27.28
2023-01-21T11:43:53.201Z,27.25
2023-01-21T11:46:35.750Z,27.26
2023-01-21T11:49:11.395Z,27.23
2023-01-21T11:51:43.002Z,27.18
2023-01-21T11:54:24.387Z,27.15
2023-01-21T11:57:00.494Z,27.16
2023-01-21T11:59:42.464Z,27.12
2023-01-21T12:02:38.349Z,27.08
2023-01-21T12:05:25.332Z,27.12
2023-01-21T12:07:55.055Z,27.11
2023-01-21T12:10:45.057Z,27.05
2023-01-21T12:13:20.215Z,27.03
2023-01-21T12:15:57.813Z,26.99
2023-01-21T12:18:36.898Z,27.02
2023-01-21T12:21:43.231Z,27.00
2023-01-21T12:24:28.350Z,26.96
2023-01-21T12:27:30.645Z,26.96
2023-01-21T12:30:08.165Z,26.92
2023-01-21T12:32:44.666Z,26.90
2023-01-21T12:35:19.270Z,26.87
2023-01-21T12:37:55.828Z,26.86
2023-01-21T12:40:38.879Z,26.84
2023-01-21T12:43:24.569Z,26.85
2023-01-21T12:46:04.855Z,26.85
2023-01-21T12:48:42.423Z,26.80
2023-01-21T12:51:23.237Z,26.80
2023-01-21T12:54:20.645Z,26.75
2023-01-21T12:57:32.778Z,26.73
2023-01-21T13:01:04.150Z,26.76
2023-01-21T13:04:17.803Z,26.68
2023-01-21T13:07:46.534Z,26.70
2023-01-21T13:11:07.384Z,26.69
2023-01-21T13:14:25.190Z,26.30
2023-01-21T13:17:56.636Z,26.65
2023-01-21T13:21:24.045Z,26.66
2023-01-21T13:24:22.490Z,26.63
2023-01-21T13:27:32.667Z,26.59
2023-01-21T13:30:40.352Z,26.59
2023-01-21T13:33:58.471Z,26.55
2023-01-21T13:37:02.921Z,26.54
2023-01-21T13:40:34.459Z,26.53
2023-01-21T13:43:49.174Z,26.52
2023-01-21T13:46:44.633Z,26.47
2023-01-21T13:50:04.206Z,26.47
2023-01-21T13:53:16.101Z,26.44
2023-01-21T13:56:36.928Z,26.42
2023-01-21T14:00:20.727Z,26.45
2023-01-21T14:03:19.433Z,26.40
2023-01-21T14:06:49.113Z,26.38
2023-01-21T14:09:31.644Z,26.39
2023-01-21T14:12:59.814Z,26.39
2023-01-21T14:16:32.927Z,26.36
2023-01-21T14:20:17.043Z,26.34
2023-01-21T14:23:09.381Z,26.32
2023-01-21T14:26:01.885Z,26.33
2023-01-21T14:28:37.473Z,26.30
2023-01-21T14:31:07.037Z,26.30
2023-01-21T14:33:51.163Z,26.28
2023-01-21T14:36:30.047Z,26.26
2023-01-21T14:39:10.044Z,26.29
2023-01-21T14:42:20.071Z,26.31
2023-01-21T14:44:52.846Z,26.33
2023-01-21T14:47:42.515Z,26.30
2023-01-21T14:50:12.378Z,26.26
2023-01-21T14:52:49.286Z,26.28
2023-01-21T14:55:33.428Z,26.25
2023-01-21T14:58:03.652Z,26.24
2023-01-21T15:00:38.696Z,26.24
2023-01-21T15:04:07.404Z,26.21
2023-01-21T15:07:15.613Z,26.22
2023-01-21T15:10:11.213Z,25.64
2023-01-21T15:12:44.858Z,26.12
2023-01-21T15:15:41.922Z,26.14
2023-01-21T15:18:43.301Z,26.15
2023-01-21T15:21:43.681Z,26.10
2023-01-21T15:24:28.547Z,26.07
2023-01-21T15:27:30.331Z,26.10
2023-01-21T15:30:00.187Z,26.09
2023-01-21T15:32:50.863Z,26.04
2023-01-21T15:35:27.160Z,26.03
2023-01-21T15:38:17.380Z,26.06
2023-01-21T15:41:02.803Z,26.06
2023-01-21T15:43:57.968Z,26.03
2023-01-21T15:46:47.637Z,26.02
2023-01-21T15:49:29.311Z,26.02
2023-01-21T15:52:22.495Z,25.48
2023-01-21T15:54:59.853Z,26.01
2023-01-21T15:58:00.038Z,26.02
2023-01-21T16:00:37.055Z,26.00
2023-01-21T16:03:46.558Z,26.00
2023-01-21T16:06:27.635Z,25.99
2023-01-21T16:09:54.228Z,25.98
2023-01-21T16:12:35.823Z,25.95
2023-01-21T16:15:20.303Z,25.95
2023-01-21T16:18:12.327Z,25.96
2023-01-21T16:20:48.709Z,25.96
2023-01-21T16:23:22.909Z,25.96
2023-01-21T16:25:55.075Z,25.93
2023-01-21T16:28:24.801Z,25.93
2023-01-21T16:31:01.053Z,25.91
2023-01-21T16:33:30.728Z,25.91
2023-01-21T16:36:07.319Z,25.91
2023-01-21T16:38:39.176Z,25.92
2023-01-21T16:41:15.440Z,25.95
2023-01-21T16:43:49.697Z,25.92
2023-01-21T16:46:41.039Z,25.97
2023-01-21T16:49:19.204Z,25.96
2023-01-21T16:51:58.905Z,25.97
2023-01-21T16:54:30.136Z,25.74
2023-01-21T16:57:05.618Z,25.96
2023-01-21T16:59:43.601Z,25.39
2023-01-21T17:02:29.618Z,25.93
2023-01-21T17:05:01.212Z,25.94
2023-01-21T17:07:33.153Z,25.93
2023-01-21T17:10:28.781Z,25.94
2023-01-21T17:13:04.335Z,25.94
2023-01-21T17:15:37.682Z,25.93
2023-01-21T17:18:09.023Z,25.62
2023-01-21T17:20:49.460Z,25.33
2023-01-21T17:23:25.989Z,25.33
2023-01-21T17:26:08.233Z,25.88
2023-01-21T17:28:59.301Z,25.86
2023-01-21T17:31:31.654Z,25.30
2023-01-21T17:34:25.334Z,25.82
2023-01-21T17:36:56.211Z,25.80
2023-01-21T17:39:53.198Z,25.81
2023-01-21T17:42:30.869Z,25.77
2023-01-21T17:45:06.123Z,25.78
2023-01-21T17:48:04.018Z,25.76
2023-01-21T17:50:33.041Z,25.75
2023-01-21T17:53:11.085Z,25.76
2023-01-21T17:55:42.477Z,25.75
2023-01-21T17:58:34.861Z,25.74
2023-01-21T18:01:06.205Z,25.72
2023-01-21T18:03:35.873Z,25.74
2023-01-21T18:07:04.602Z,25.73
2023-01-21T18:10:33.215Z,25.75
2023-01-21T18:14:02.248Z,25.58
2023-01-21T18:17:30.903Z,25.72
2023-01-21T18:20:59.615Z,25.53
2023-01-21T18:24:28.299Z,25.74
2023-01-21T18:27:56.942Z,25.72
2023-01-21T18:31:25.733Z,25.69
2023-01-21T18:34:54.441Z,25.71
2023-01-21T18:38:23.127Z,25.72
2023-01-21T18:41:51.866Z,25.69
2023-01-21T18:45:20.634Z,25.58
2023-01-21T18:48:52.181Z,25.65
2023-01-21T18:52:20.894Z,25.63
2023-01-21T18:55:51.310Z,25.62
2023-01-21T18:59:19.927Z,25.62
2023-01-21T19:02:54.367Z,25.60
2023-01-21T19:06:23.047Z,25.17
2023-01-21T19:09:51.734Z,25.61
2023-01-21T19:13:20.435Z,25.61
